Terminal Aerodrome Forecast
Issued by NWS

Current Version | Previous Version | Text Only | Print | Product List | Glossary On
Versions: 1 2 3 4 5 6 7 8 9 10 11 12 13
000
FTUS42 TJSJ 212300 RRA
TAFNCM
TAF
TNCM 212340Z 2200/2224 08014KT P6SM VCSH SCT022 BKN100
     FM221300 11011KT P6SM VCSH SCT018 BKN060=

USA.gov is the U.S. government's official web portal to all federal, state and local government web resources and services.